sensor_id;sensor_type;location;lat;lon;timestamp;P1;durP1;ratioP1;P2;durP2;ratioP2
11338;SDS011;5724;42.684;23.252;2023-12-14T00:00:01;16.20;;;14.50;;
11338;SDS011;5724;42.684;23.252;2023-12-14T00:02:47;18.60;;;14.60;;
11338;SDS011;5724;42.684;23.252;2023-12-14T00:05:33;17.03;;;14.70;;
11338;SDS011;5724;42.684;23.252;2023-12-14T00:08:20;17.63;;;15.00;;
11338;SDS011;5724;42.684;23.252;2023-12-14T00:11:06;16.37;;;14.77;;
11338;SDS011;5724;42.684;23.252;2023-12-14T00:13:53;18.57;;;15.40;;
11338;SDS011;5724;42.684;23.252;2023-12-14T00:16:39;16.30;;;14.43;;
11338;SDS011;5724;42.684;23.252;2023-12-14T00:19:25;17.60;;;13.83;;
11338;SDS011;5724;42.684;23.252;2023-12-14T00:22:11;17.40;;;15.60;;
11338;SDS011;5724;42.684;23.252;2023-12-14T00:24:57;15.80;;;14.07;;
11338;SDS011;5724;42.684;23.252;2023-12-14T00:27:43;16.53;;;14.63;;
11338;SDS011;5724;42.684;23.252;2023-12-14T00:30:29;14.93;;;13.03;;
11338;SDS011;5724;42.684;23.252;2023-12-14T00:33:14;14.03;;;12.10;;
11338;SDS011;5724;42.684;23.252;2023-12-14T00:36:00;14.17;;;12.40;;
11338;SDS011;5724;42.684;23.252;2023-12-14T00:38:46;17.83;;;14.20;;
11338;SDS011;5724;42.684;23.252;2023-12-14T00:41:32;14.57;;;12.97;;
11338;SDS011;5724;42.684;23.252;2023-12-14T00:44:18;18.33;;;14.17;;
11338;SDS011;5724;42.684;23.252;2023-12-14T00:47:03;17.13;;;13.43;;
11338;SDS011;5724;42.684;23.252;2023-12-14T00:49:49;15.83;;;13.13;;
11338;SDS011;5724;42.684;23.252;2023-12-14T00:52:35;19.67;;;13.00;;
11338;SDS011;5724;42.684;23.252;2023-12-14T00:55:21;16.23;;;13.37;;
11338;SDS011;5724;42.684;23.252;2023-12-14T00:58:07;15.30;;;12.33;;
11338;SDS011;5724;42.684;23.252;2023-12-14T01:00:53;14.17;;;12.67;;
11338;SDS011;5724;42.684;23.252;2023-12-14T01:03:39;14.20;;;12.70;;
11338;SDS011;5724;42.684;23.252;2023-12-14T01:06:25;14.63;;;12.30;;
11338;SDS011;5724;42.684;23.252;2023-12-14T01:09:11;13.33;;;12.07;;
11338;SDS011;5724;42.684;23.252;2023-12-14T01:11:57;13.43;;;12.13;;
11338;SDS011;5724;42.684;23.252;2023-12-14T01:14:42;13.47;;;11.50;;
11338;SDS011;5724;42.684;23.252;2023-12-14T01:17:28;12.90;;;11.50;;
11338;SDS011;5724;42.684;23.252;2023-12-14T01:20:14;19.00;;;15.07;;
11338;SDS011;5724;42.684;23.252;2023-12-14T01:23:00;13.70;;;12.37;;
11338;SDS011;5724;42.684;23.252;2023-12-14T01:25:46;13.87;;;12.33;;
11338;SDS011;5724;42.684;23.252;2023-12-14T01:28:32;12.27;;;11.07;;
11338;SDS011;5724;42.684;23.252;2023-12-14T01:31:17;13.63;;;12.43;;
11338;SDS011;5724;42.684;23.252;2023-12-14T01:34:04;15.47;;;13.80;;
11338;SDS011;5724;42.684;23.252;2023-12-14T01:36:50;17.87;;;14.33;;
11338;SDS011;5724;42.684;23.252;2023-12-14T01:39:35;13.27;;;12.00;;
11338;SDS011;5724;42.684;23.252;2023-12-14T01:42:21;13.93;;;12.27;;
11338;SDS011;5724;42.684;23.252;2023-12-14T01:45:07;13.63;;;12.23;;
11338;SDS011;5724;42.684;23.252;2023-12-14T01:47:53;13.57;;;12.20;;
11338;SDS011;5724;42.684;23.252;2023-12-14T01:50:39;14.00;;;12.60;;
11338;SDS011;5724;42.684;23.252;2023-12-14T01:53:25;24.00;;;17.77;;
11338;SDS011;5724;42.684;23.252;2023-12-14T01:56:11;14.60;;;13.20;;
11338;SDS011;5724;42.684;23.252;2023-12-14T01:58:57;15.53;;;13.57;;
11338;SDS011;5724;42.684;23.252;2023-12-14T02:01:43;15.93;;;12.97;;
11338;SDS011;5724;42.684;23.252;2023-12-14T02:04:30;10.37;;;9.47;;
11338;SDS011;5724;42.684;23.252;2023-12-14T02:07:16;15.53;;;13.00;;
11338;SDS011;5724;42.684;23.252;2023-12-14T02:10:02;14.87;;;13.07;;
11338;SDS011;5724;42.684;23.252;2023-12-14T02:12:48;11.77;;;10.60;;
11338;SDS011;5724;42.684;23.252;2023-12-14T02:15:34;12.23;;;11.03;;
11338;SDS011;5724;42.684;23.252;2023-12-14T02:18:20;11.77;;;10.67;;
11338;SDS011;5724;42.684;23.252;2023-12-14T02:21:06;11.67;;;10.50;;
11338;SDS011;5724;42.684;23.252;2023-12-14T02:23:52;13.20;;;11.50;;
11338;SDS011;5724;42.684;23.252;2023-12-14T02:26:38;9.67;;;8.80;;
11338;SDS011;5724;42.684;23.252;2023-12-14T02:29:24;9.77;;;8.83;;
11338;SDS011;5724;42.684;23.252;2023-12-14T02:32:09;10.60;;;9.67;;
11338;SDS011;5724;42.684;23.252;2023-12-14T02:34:55;10.77;;;9.77;;
11338;SDS011;5724;42.684;23.252;2023-12-14T02:37:41;8.60;;;8.00;;
11338;SDS011;5724;42.684;23.252;2023-12-14T02:40:27;10.77;;;9.70;;
11338;SDS011;5724;42.684;23.252;2023-12-14T02:43:13;8.20;;;7.50;;
11338;SDS011;5724;42.684;23.252;2023-12-14T02:45:58;10.13;;;9.27;;
11338;SDS011;5724;42.684;23.252;2023-12-14T02:48:47;8.93;;;8.23;;
11338;SDS011;5724;42.684;23.252;2023-12-14T02:51:33;8.77;;;8.07;;
11338;SDS011;5724;42.684;23.252;2023-12-14T02:54:19;9.70;;;9.00;;
11338;SDS011;5724;42.684;23.252;2023-12-14T02:57:04;8.87;;;8.17;;
11338;SDS011;5724;42.684;23.252;2023-12-14T02:59:50;10.67;;;8.30;;
11338;SDS011;5724;42.684;23.252;2023-12-14T03:02:36;7.47;;;6.87;;
11338;SDS011;5724;42.684;23.252;2023-12-14T03:05:22;7.23;;;6.73;;
11338;SDS011;5724;42.684;23.252;2023-12-14T03:08:08;7.03;;;6.53;;
11338;SDS011;5724;42.684;23.252;2023-12-14T03:10:54;8.07;;;7.37;;
11338;SDS011;5724;42.684;23.252;2023-12-14T03:13:40;7.93;;;7.33;;
11338;SDS011;5724;42.684;23.252;2023-12-14T03:16:25;7.83;;;7.13;;
11338;SDS011;5724;42.684;23.252;2023-12-14T03:19:11;7.67;;;7.07;;
11338;SDS011;5724;42.684;23.252;2023-12-14T03:21:57;7.17;;;6.67;;
11338;SDS011;5724;42.684;23.252;2023-12-14T03:24:43;7.37;;;6.80;;
11338;SDS011;5724;42.684;23.252;2023-12-14T03:27:29;7.63;;;6.93;;
11338;SDS011;5724;42.684;23.252;2023-12-14T03:30:14;7.10;;;6.50;;
11338;SDS011;5724;42.684;23.252;2023-12-14T03:33:00;6.97;;;6.47;;
11338;SDS011;5724;42.684;23.252;2023-12-14T03:35:46;6.20;;;5.80;;
11338;SDS011;5724;42.684;23.252;2023-12-14T03:38:32;6.40;;;5.90;;
11338;SDS011;5724;42.684;23.252;2023-12-14T03:41:18;6.70;;;6.20;;
11338;SDS011;5724;42.684;23.252;2023-12-14T03:44:04;6.47;;;5.97;;
11338;SDS011;5724;42.684;23.252;2023-12-14T03:46:50;6.97;;;6.47;;
11338;SDS011;5724;42.684;23.252;2023-12-14T03:49:37;5.60;;;5.20;;
11338;SDS011;5724;42.684;23.252;2023-12-14T03:52:23;5.90;;;5.50;;
11338;SDS011;5724;42.684;23.252;2023-12-14T03:55:09;8.33;;;7.63;;
11338;SDS011;5724;42.684;23.252;2023-12-14T03:57:55;7.87;;;6.83;;
11338;SDS011;5724;42.684;23.252;2023-12-14T04:00:41;7.80;;;7.20;;
11338;SDS011;5724;42.684;23.252;2023-12-14T04:03:27;7.57;;;6.90;;
11338;SDS011;5724;42.684;23.252;2023-12-14T04:06:13;7.73;;;7.03;;
11338;SDS011;5724;42.684;23.252;2023-12-14T04:09:00;7.73;;;7.10;;
11338;SDS011;5724;42.684;23.252;2023-12-14T04:11:46;6.77;;;6.27;;
11338;SDS011;5724;42.684;23.252;2023-12-14T04:14:31;6.67;;;6.17;;
11338;SDS011;5724;42.684;23.252;2023-12-14T04:17:18;6.23;;;5.83;;
11338;SDS011;5724;42.684;23.252;2023-12-14T04:20:04;5.83;;;5.43;;
11338;SDS011;5724;42.684;23.252;2023-12-14T04:22:51;6.80;;;6.20;;
11338;SDS011;5724;42.684;23.252;2023-12-14T04:25:37;6.30;;;5.90;;
11338;SDS011;5724;42.684;23.252;2023-12-14T04:28:22;6.37;;;5.83;;
11338;SDS011;5724;42.684;23.252;2023-12-14T04:31:08;6.17;;;5.77;;
11338;SDS011;5724;42.684;23.252;2023-12-14T04:33:55;6.53;;;6.03;;
11338;SDS011;5724;42.684;23.252;2023-12-14T04:36:41;7.03;;;6.50;;
11338;SDS011;5724;42.684;23.252;2023-12-14T04:39:28;6.57;;;6.10;;
11338;SDS011;5724;42.684;23.252;2023-12-14T04:42:13;6.47;;;6.07;;
11338;SDS011;5724;42.684;23.252;2023-12-14T04:44:59;6.67;;;6.07;;
11338;SDS011;5724;42.684;23.252;2023-12-14T04:47:45;7.13;;;6.63;;
11338;SDS011;5724;42.684;23.252;2023-12-14T04:50:31;6.97;;;6.47;;
11338;SDS011;5724;42.684;23.252;2023-12-14T04:53:17;7.03;;;6.53;;
11338;SDS011;5724;42.684;23.252;2023-12-14T04:56:02;6.90;;;6.10;;
11338;SDS011;5724;42.684;23.252;2023-12-14T04:58:48;6.50;;;5.87;;
11338;SDS011;5724;42.684;23.252;2023-12-14T05:01:34;6.90;;;6.40;;
11338;SDS011;5724;42.684;23.252;2023-12-14T05:04:20;7.43;;;6.73;;
11338;SDS011;5724;42.684;23.252;2023-12-14T05:07:06;6.87;;;6.37;;
11338;SDS011;5724;42.684;23.252;2023-12-14T05:09:52;7.37;;;6.77;;
11338;SDS011;5724;42.684;23.252;2023-12-14T05:12:38;7.40;;;6.80;;
11338;SDS011;5724;42.684;23.252;2023-12-14T05:15:24;7.30;;;6.80;;
11338;SDS011;5724;42.684;23.252;2023-12-14T05:18:09;8.40;;;7.70;;
11338;SDS011;5724;42.684;23.252;2023-12-14T05:20:55;8.60;;;7.90;;
11338;SDS011;5724;42.684;23.252;2023-12-14T05:23:41;11.27;;;8.60;;
11338;SDS011;5724;42.684;23.252;2023-12-14T05:26:27;8.27;;;7.67;;
11338;SDS011;5724;42.684;23.252;2023-12-14T05:29:13;9.03;;;8.30;;
11338;SDS011;5724;42.684;23.252;2023-12-14T05:31:58;8.30;;;7.10;;
11338;SDS011;5724;42.684;23.252;2023-12-14T05:34:44;7.80;;;7.20;;
11338;SDS011;5724;42.684;23.252;2023-12-14T05:37:30;7.40;;;6.90;;
11338;SDS011;5724;42.684;23.252;2023-12-14T05:40:16;7.67;;;7.07;;
11338;SDS011;5724;42.684;23.252;2023-12-14T05:43:02;8.00;;;7.40;;
11338;SDS011;5724;42.684;23.252;2023-12-14T05:45:48;10.00;;;7.40;;
11338;SDS011;5724;42.684;23.252;2023-12-14T05:48:34;7.63;;;6.93;;
11338;SDS011;5724;42.684;23.252;2023-12-14T05:51:29;7.93;;;7.33;;
11338;SDS011;5724;42.684;23.252;2023-12-14T05:54:16;8.47;;;7.63;;
11338;SDS011;5724;42.684;23.252;2023-12-14T05:57:02;8.20;;;7.50;;
11338;SDS011;5724;42.684;23.252;2023-12-14T05:59:49;7.87;;;7.27;;
11338;SDS011;5724;42.684;23.252;2023-12-14T06:02:36;7.70;;;7.10;;
11338;SDS011;5724;42.684;23.252;2023-12-14T06:05:22;8.80;;;7.00;;
11338;SDS011;5724;42.684;23.252;2023-12-14T06:08:08;8.83;;;7.77;;
11338;SDS011;5724;42.684;23.252;2023-12-14T06:10:54;8.33;;;7.73;;
11338;SDS011;5724;42.684;23.252;2023-12-14T06:13:39;10.93;;;9.00;;
11338;SDS011;5724;42.684;23.252;2023-12-14T06:16:25;7.80;;;7.20;;
11338;SDS011;5724;42.684;23.252;2023-12-14T06:19:11;8.57;;;7.73;;
11338;SDS011;5724;42.684;23.252;2023-12-14T06:21:57;7.03;;;6.53;;
11338;SDS011;5724;42.684;23.252;2023-12-14T06:24:43;7.60;;;7.00;;
11338;SDS011;5724;42.684;23.252;2023-12-14T06:27:29;8.10;;;7.40;;
11338;SDS011;5724;42.684;23.252;2023-12-14T06:30:15;9.33;;;6.83;;
11338;SDS011;5724;42.684;23.252;2023-12-14T06:33:00;8.63;;;7.83;;
11338;SDS011;5724;42.684;23.252;2023-12-14T06:35:47;9.43;;;7.27;;
11338;SDS011;5724;42.684;23.252;2023-12-14T06:38:33;7.93;;;7.20;;
11338;SDS011;5724;42.684;23.252;2023-12-14T06:41:22;8.63;;;7.83;;
11338;SDS011;5724;42.684;23.252;2023-12-14T06:44:09;7.80;;;7.10;;
11338;SDS011;5724;42.684;23.252;2023-12-14T06:46:54;8.70;;;6.97;;
11338;SDS011;5724;42.684;23.252;2023-12-14T06:49:41;8.60;;;7.47;;
11338;SDS011;5724;42.684;23.252;2023-12-14T06:52:27;7.87;;;7.13;;
11338;SDS011;5724;42.684;23.252;2023-12-14T06:55:13;13.70;;;7.90;;
11338;SDS011;5724;42.684;23.252;2023-12-14T06:58:00;9.50;;;8.37;;
11338;SDS011;5724;42.684;23.252;2023-12-14T07:00:46;9.53;;;8.53;;
11338;SDS011;5724;42.684;23.252;2023-12-14T07:03:32;8.60;;;7.70;;
11338;SDS011;5724;42.684;23.252;2023-12-14T07:06:18;8.20;;;7.45;;
11338;SDS011;5724;42.684;23.252;2023-12-14T07:09:04;7.63;;;6.90;;
11338;SDS011;5724;42.684;23.252;2023-12-14T07:11:51;7.70;;;7.00;;
11338;SDS011;5724;42.684;23.252;2023-12-14T07:14:37;7.90;;;7.30;;
11338;SDS011;5724;42.684;23.252;2023-12-14T07:17:23;12.80;;;7.40;;
11338;SDS011;5724;42.684;23.252;2023-12-14T07:20:09;9.32;;;7.72;;
11338;SDS011;5724;42.684;23.252;2023-12-14T07:22:55;10.45;;;7.47;;
11338;SDS011;5724;42.684;23.252;2023-12-14T07:25:41;9.40;;;7.88;;
11338;SDS011;5724;42.684;23.252;2023-12-14T07:28:27;9.25;;;8.30;;
11338;SDS011;5724;42.684;23.252;2023-12-14T07:31:13;10.02;;;7.38;;
11338;SDS011;5724;42.684;23.252;2023-12-14T07:33:59;10.00;;;7.57;;
11338;SDS011;5724;42.684;23.252;2023-12-14T07:36:45;7.72;;;7.03;;
11338;SDS011;5724;42.684;23.252;2023-12-14T07:39:30;9.63;;;7.15;;
11338;SDS011;5724;42.684;23.252;2023-12-14T07:42:17;7.80;;;7.15;;
11338;SDS011;5724;42.684;23.252;2023-12-14T07:45:05;10.27;;;7.80;;
11338;SDS011;5724;42.684;23.252;2023-12-14T07:47:53;8.43;;;7.60;;
11338;SDS011;5724;42.684;23.252;2023-12-14T07:50:39;12.90;;;8.07;;
11338;SDS011;5724;42.684;23.252;2023-12-14T07:53:25;20.45;;;9.65;;
11338;SDS011;5724;42.684;23.252;2023-12-14T07:56:12;11.60;;;8.38;;
11338;SDS011;5724;42.684;23.252;2023-12-14T07:58:58;15.82;;;9.10;;
11338;SDS011;5724;42.684;23.252;2023-12-14T08:01:43;15.70;;;10.13;;
11338;SDS011;5724;42.684;23.252;2023-12-14T08:04:29;20.70;;;9.90;;
11338;SDS011;5724;42.684;23.252;2023-12-14T08:07:15;29.95;;;11.38;;
11338;SDS011;5724;42.684;23.252;2023-12-14T08:10:01;42.83;;;13.00;;
11338;SDS011;5724;42.684;23.252;2023-12-14T08:12:47;19.02;;;10.18;;
11338;SDS011;5724;42.684;23.252;2023-12-14T08:15:33;15.15;;;9.65;;
11338;SDS011;5724;42.684;23.252;2023-12-14T08:18:18;12.57;;;8.38;;
11338;SDS011;5724;42.684;23.252;2023-12-14T08:21:04;10.85;;;8.45;;
11338;SDS011;5724;42.684;23.252;2023-12-14T08:23:50;9.10;;;7.75;;
11338;SDS011;5724;42.684;23.252;2023-12-14T08:26:36;9.88;;;7.13;;
11338;SDS011;5724;42.684;23.252;2023-12-14T08:29:22;9.70;;;7.15;;
11338;SDS011;5724;42.684;23.252;2023-12-14T08:32:08;8.55;;;7.00;;
11338;SDS011;5724;42.684;23.252;2023-12-14T08:34:53;11.10;;;7.95;;
11338;SDS011;5724;42.684;23.252;2023-12-14T08:37:39;18.92;;;9.40;;
11338;SDS011;5724;42.684;23.252;2023-12-14T08:40:25;19.92;;;8.55;;
11338;SDS011;5724;42.684;23.252;2023-12-14T08:43:11;16.02;;;9.82;;
11338;SDS011;5724;42.684;23.252;2023-12-14T08:45:57;26.02;;;10.73;;
11338;SDS011;5724;42.684;23.252;2023-12-14T08:48:43;20.27;;;9.32;;
11338;SDS011;5724;42.684;23.252;2023-12-14T08:51:29;22.05;;;8.32;;
11338;SDS011;5724;42.684;23.252;2023-12-14T08:54:15;17.95;;;8.25;;
11338;SDS011;5724;42.684;23.252;2023-12-14T08:57:01;10.60;;;9.07;;
11338;SDS011;5724;42.684;23.252;2023-12-14T08:59:47;8.52;;;7.78;;
11338;SDS011;5724;42.684;23.252;2023-12-14T09:02:34;8.82;;;7.82;;
11338;SDS011;5724;42.684;23.252;2023-12-14T09:05:20;12.65;;;7.43;;
11338;SDS011;5724;42.684;23.252;2023-12-14T09:08:06;10.15;;;7.03;;
11338;SDS011;5724;42.684;23.252;2023-12-14T09:10:53;15.90;;;6.60;;
11338;SDS011;5724;42.684;23.252;2023-12-14T09:13:38;7.90;;;6.05;;
11338;SDS011;5724;42.684;23.252;2023-12-14T09:16:25;11.68;;;6.38;;
11338;SDS011;5724;42.684;23.252;2023-12-14T09:19:11;8.13;;;5.97;;
11338;SDS011;5724;42.684;23.252;2023-12-14T09:21:57;10.18;;;7.28;;
11338;SDS011;5724;42.684;23.252;2023-12-14T09:24:43;9.45;;;6.53;;
11338;SDS011;5724;42.684;23.252;2023-12-14T09:27:29;10.80;;;6.78;;
11338;SDS011;5724;42.684;23.252;2023-12-14T09:30:15;9.57;;;6.38;;
11338;SDS011;5724;42.684;23.252;2023-12-14T09:33:02;11.30;;;5.78;;
11338;SDS011;5724;42.684;23.252;2023-12-14T09:35:48;9.35;;;5.90;;
11338;SDS011;5724;42.684;23.252;2023-12-14T09:38:34;6.57;;;5.25;;
11338;SDS011;5724;42.684;23.252;2023-12-14T09:41:21;7.07;;;5.35;;
11338;SDS011;5724;42.684;23.252;2023-12-14T09:44:07;12.75;;;5.15;;
11338;SDS011;5724;42.684;23.252;2023-12-14T09:46:53;5.55;;;4.85;;
11338;SDS011;5724;42.684;23.252;2023-12-14T09:49:39;5.05;;;4.63;;
11338;SDS011;5724;42.684;23.252;2023-12-14T09:52:28;5.45;;;4.75;;
11338;SDS011;5724;42.684;23.252;2023-12-14T09:55:14;5.80;;;5.30;;
11338;SDS011;5724;42.684;23.252;2023-12-14T09:58:00;5.60;;;5.05;;
11338;SDS011;5724;42.684;23.252;2023-12-14T10:00:49;8.48;;;4.85;;
11338;SDS011;5724;42.684;23.252;2023-12-14T10:03:35;6.90;;;5.05;;
11338;SDS011;5724;42.684;23.252;2023-12-14T10:06:21;5.43;;;4.93;;
11338;SDS011;5724;42.684;23.252;2023-12-14T10:09:08;6.70;;;5.20;;
11338;SDS011;5724;42.684;23.252;2023-12-14T10:12:01;6.93;;;5.50;;
11338;SDS011;5724;42.684;23.252;2023-12-14T10:14:59;7.82;;;5.63;;
11338;SDS011;5724;42.684;23.252;2023-12-14T10:17:55;8.75;;;5.88;;
11338;SDS011;5724;42.684;23.252;2023-12-14T10:20:42;18.70;;;11.82;;
11338;SDS011;5724;42.684;23.252;2023-12-14T10:23:30;12.63;;;11.23;;
11338;SDS011;5724;42.684;23.252;2023-12-14T10:26:16;7.70;;;6.93;;
11338;SDS011;5724;42.684;23.252;2023-12-14T10:29:02;9.45;;;8.60;;
11338;SDS011;5724;42.684;23.252;2023-12-14T10:31:49;10.57;;;8.77;;
11338;SDS011;5724;42.684;23.252;2023-12-14T10:34:36;16.23;;;9.35;;
11338;SDS011;5724;42.684;23.252;2023-12-14T10:37:22;13.73;;;9.93;;
11338;SDS011;5724;42.684;23.252;2023-12-14T10:40:11;9.95;;;9.02;;
11338;SDS011;5724;42.684;23.252;2023-12-14T10:42:59;11.65;;;10.32;;
11338;SDS011;5724;42.684;23.252;2023-12-14T10:45:46;11.65;;;9.80;;
11338;SDS011;5724;42.684;23.252;2023-12-14T10:48:34;8.38;;;7.47;;
11338;SDS011;5724;42.684;23.252;2023-12-14T10:51:22;6.20;;;5.70;;
11338;SDS011;5724;42.684;23.252;2023-12-14T10:54:10;5.50;;;5.00;;
11338;SDS011;5724;42.684;23.252;2023-12-14T10:56:56;6.05;;;5.45;;
11338;SDS011;5724;42.684;23.252;2023-12-14T10:59:42;7.88;;;4.03;;
11338;SDS011;5724;42.684;23.252;2023-12-14T11:02:29;4.63;;;4.20;;
11338;SDS011;5724;42.684;23.252;2023-12-14T11:05:22;4.70;;;3.35;;
11338;SDS011;5724;42.684;23.252;2023-12-14T11:08:14;3.40;;;3.20;;
11338;SDS011;5724;42.684;23.252;2023-12-14T11:11:03;4.18;;;2.70;;
11338;SDS011;5724;42.684;23.252;2023-12-14T11:13:56;2.63;;;2.53;;
11338;SDS011;5724;42.684;23.252;2023-12-14T11:16:42;3.13;;;2.83;;
11338;SDS011;5724;42.684;23.252;2023-12-14T11:19:31;2.90;;;2.70;;
11338;SDS011;5724;42.684;23.252;2023-12-14T11:22:24;2.22;;;2.13;;
11338;SDS011;5724;42.684;23.252;2023-12-14T11:25:12;2.33;;;2.22;;
11338;SDS011;5724;42.684;23.252;2023-12-14T11:28:03;2.60;;;2.40;;
11338;SDS011;5724;42.684;23.252;2023-12-14T11:30:50;2.95;;;2.67;;
11338;SDS011;5724;42.684;23.252;2023-12-14T11:33:36;2.05;;;1.60;;
11338;SDS011;5724;42.684;23.252;2023-12-14T11:36:22;2.73;;;1.23;;
11338;SDS011;5724;42.684;23.252;2023-12-14T11:39:09;1.33;;;1.20;;
11338;SDS011;5724;42.684;23.252;2023-12-14T11:42:01;2.78;;;1.33;;
11338;SDS011;5724;42.684;23.252;2023-12-14T11:44:52;2.30;;;1.38;;
11338;SDS011;5724;42.684;23.252;2023-12-14T11:47:38;1.10;;;1.10;;
11338;SDS011;5724;42.684;23.252;2023-12-14T11:50:23;1.73;;;1.63;;
11338;SDS011;5724;42.684;23.252;2023-12-14T11:53:09;1.98;;;1.30;;
11338;SDS011;5724;42.684;23.252;2023-12-14T11:55:56;1.70;;;0.83;;
11338;SDS011;5724;42.684;23.252;2023-12-14T11:58:43;1.37;;;0.80;;
11338;SDS011;5724;42.684;23.252;2023-12-14T12:01:30;1.20;;;0.80;;
11338;SDS011;5724;42.684;23.252;2023-12-14T12:04:17;1.13;;;1.10;;
11338;SDS011;5724;42.684;23.252;2023-12-14T12:07:04;1.03;;;0.63;;
11338;SDS011;5724;42.684;23.252;2023-12-14T12:09:53;1.00;;;1.00;;
11338;SDS011;5724;42.684;23.252;2023-12-14T12:12:39;0.70;;;0.70;;
11338;SDS011;5724;42.684;23.252;2023-12-14T12:15:26;5.63;;;1.40;;
11338;SDS011;5724;42.684;23.252;2023-12-14T12:18:13;3.05;;;1.00;;
11338;SDS011;5724;42.684;23.252;2023-12-14T12:21:00;0.70;;;0.70;;
11338;SDS011;5724;42.684;23.252;2023-12-14T12:23:49;1.58;;;0.70;;
11338;SDS011;5724;42.684;23.252;2023-12-14T12:26:35;3.90;;;1.10;;
11338;SDS011;5724;42.684;23.252;2023-12-14T12:29:22;0.73;;;0.73;;
11338;SDS011;5724;42.684;23.252;2023-12-14T12:32:08;0.50;;;0.50;;
11338;SDS011;5724;42.684;23.252;2023-12-14T12:34:54;2.20;;;0.80;;
11338;SDS011;5724;42.684;23.252;2023-12-14T12:37:40;1.37;;;0.67;;
11338;SDS011;5724;42.684;23.252;2023-12-14T12:40:26;0.90;;;0.90;;
11338;SDS011;5724;42.684;23.252;2023-12-14T12:43:13;0.60;;;0.60;;
11338;SDS011;5724;42.684;23.252;2023-12-14T12:46:01;0.80;;;0.80;;
11338;SDS011;5724;42.684;23.252;2023-12-14T12:48:47;2.17;;;0.93;;
11338;SDS011;5724;42.684;23.252;2023-12-14T12:51:34;1.80;;;0.70;;
11338;SDS011;5724;42.684;23.252;2023-12-14T12:54:21;0.57;;;0.57;;
11338;SDS011;5724;42.684;23.252;2023-12-14T12:57:07;0.60;;;0.60;;
11338;SDS011;5724;42.684;23.252;2023-12-14T12:59:52;1.40;;;0.60;;
11338;SDS011;5724;42.684;23.252;2023-12-14T13:02:38;2.20;;;1.10;;
11338;SDS011;5724;42.684;23.252;2023-12-14T13:05:25;2.50;;;1.10;;
11338;SDS011;5724;42.684;23.252;2023-12-14T13:08:11;1.27;;;0.73;;
11338;SDS011;5724;42.684;23.252;2023-12-14T13:10:57;2.13;;;1.93;;
11338;SDS011;5724;42.684;23.252;2023-12-14T13:13:43;0.90;;;0.90;;
11338;SDS011;5724;42.684;23.252;2023-12-14T13:16:29;1.30;;;1.20;;
11338;SDS011;5724;42.684;23.252;2023-12-14T13:19:15;4.30;;;3.47;;
11338;SDS011;5724;42.684;23.252;2023-12-14T13:22:01;1.17;;;0.60;;
11338;SDS011;5724;42.684;23.252;2023-12-14T13:24:47;0.80;;;0.80;;
11338;SDS011;5724;42.684;23.252;2023-12-14T13:27:33;0.47;;;0.47;;
11338;SDS011;5724;42.684;23.252;2023-12-14T13:30:21;2.40;;;0.60;;
11338;SDS011;5724;42.684;23.252;2023-12-14T13:33:08;1.63;;;0.70;;
11338;SDS011;5724;42.684;23.252;2023-12-14T13:35:57;0.77;;;0.60;;
11338;SDS011;5724;42.684;23.252;2023-12-14T13:38:42;1.87;;;1.77;;
11338;SDS011;5724;42.684;23.252;2023-12-14T13:41:28;0.80;;;0.80;;
11338;SDS011;5724;42.684;23.252;2023-12-14T13:44:19;0.50;;;0.50;;
11338;SDS011;5724;42.684;23.252;2023-12-14T13:47:05;0.90;;;0.50;;
11338;SDS011;5724;42.684;23.252;2023-12-14T13:49:50;0.97;;;0.60;;
11338;SDS011;5724;42.684;23.252;2023-12-14T13:52:36;0.47;;;0.47;;
11338;SDS011;5724;42.684;23.252;2023-12-14T13:55:22;0.70;;;0.70;;
11338;SDS011;5724;42.684;23.252;2023-12-14T13:58:08;0.67;;;0.50;;
11338;SDS011;5724;42.684;23.252;2023-12-14T14:00:54;0.53;;;0.53;;
11338;SDS011;5724;42.684;23.252;2023-12-14T14:03:40;0.83;;;0.83;;
11338;SDS011;5724;42.684;23.252;2023-12-14T14:06:27;0.80;;;0.80;;
11338;SDS011;5724;42.684;23.252;2023-12-14T14:09:13;2.73;;;1.67;;
11338;SDS011;5724;42.684;23.252;2023-12-14T14:11:59;2.97;;;2.37;;
11338;SDS011;5724;42.684;23.252;2023-12-14T14:14:45;2.77;;;2.57;;
11338;SDS011;5724;42.684;23.252;2023-12-14T14:17:31;1.40;;;1.30;;
11338;SDS011;5724;42.684;23.252;2023-12-14T14:20:17;2.30;;;1.80;;
11338;SDS011;5724;42.684;23.252;2023-12-14T14:23:03;3.60;;;3.30;;
11338;SDS011;5724;42.684;23.252;2023-12-14T14:25:53;3.23;;;2.63;;
11338;SDS011;5724;42.684;23.252;2023-12-14T14:28:39;2.10;;;2.00;;
11338;SDS011;5724;42.684;23.252;2023-12-14T14:31:25;2.03;;;1.92;;
11338;SDS011;5724;42.684;23.252;2023-12-14T14:34:15;2.23;;;1.57;;
11338;SDS011;5724;42.684;23.252;2023-12-14T14:37:01;0.83;;;0.83;;
11338;SDS011;5724;42.684;23.252;2023-12-14T14:39:47;1.30;;;1.20;;
11338;SDS011;5724;42.684;23.252;2023-12-14T14:42:33;1.13;;;1.13;;
11338;SDS011;5724;42.684;23.252;2023-12-14T14:45:19;2.70;;;2.60;;
11338;SDS011;5724;42.684;23.252;2023-12-14T14:48:05;2.67;;;2.47;;
11338;SDS011;5724;42.684;23.252;2023-12-14T14:50:51;3.03;;;2.00;;
11338;SDS011;5724;42.684;23.252;2023-12-14T14:53:39;1.60;;;1.50;;
11338;SDS011;5724;42.684;23.252;2023-12-14T14:56:28;3.47;;;2.80;;
11338;SDS011;5724;42.684;23.252;2023-12-14T14:59:13;41.77;;;33.07;;
11338;SDS011;5724;42.684;23.252;2023-12-14T15:02:00;1.60;;;1.50;;
11338;SDS011;5724;42.684;23.252;2023-12-14T15:04:47;1.50;;;1.50;;
11338;SDS011;5724;42.684;23.252;2023-12-14T15:07:33;4.40;;;2.13;;
11338;SDS011;5724;42.684;23.252;2023-12-14T15:10:18;1.35;;;1.15;;
11338;SDS011;5724;42.684;23.252;2023-12-14T15:13:04;1.75;;;1.65;;
11338;SDS011;5724;42.684;23.252;2023-12-14T15:15:50;3.53;;;3.13;;
11338;SDS011;5724;42.684;23.252;2023-12-14T15:18:36;4.03;;;2.87;;
11338;SDS011;5724;42.684;23.252;2023-12-14T15:21:26;6.63;;;5.00;;
11338;SDS011;5724;42.684;23.252;2023-12-14T15:24:12;2.30;;;2.20;;
11338;SDS011;5724;42.684;23.252;2023-12-14T15:26:58;3.97;;;3.67;;
11338;SDS011;5724;42.684;23.252;2023-12-14T15:29:44;3.63;;;3.33;;
11338;SDS011;5724;42.684;23.252;2023-12-14T15:32:30;2.97;;;2.87;;
11338;SDS011;5724;42.684;23.252;2023-12-14T15:35:15;2.87;;;2.67;;
11338;SDS011;5724;42.684;23.252;2023-12-14T15:38:01;2.47;;;2.27;;
11338;SDS011;5724;42.684;23.252;2023-12-14T15:40:48;2.07;;;1.70;;
11338;SDS011;5724;42.684;23.252;2023-12-14T15:43:34;4.37;;;2.73;;
11338;SDS011;5724;42.684;23.252;2023-12-14T15:46:20;7.47;;;6.77;;
11338;SDS011;5724;42.684;23.252;2023-12-14T15:49:06;3.60;;;3.30;;
11338;SDS011;5724;42.684;23.252;2023-12-14T15:51:52;4.20;;;3.90;;
11338;SDS011;5724;42.684;23.252;2023-12-14T15:54:38;3.70;;;3.40;;
11338;SDS011;5724;42.684;23.252;2023-12-14T15:57:24;3.77;;;3.47;;
11338;SDS011;5724;42.684;23.252;2023-12-14T16:00:09;3.57;;;3.27;;
11338;SDS011;5724;42.684;23.252;2023-12-14T16:02:56;3.50;;;3.20;;
11338;SDS011;5724;42.684;23.252;2023-12-14T16:05:42;6.00;;;5.47;;
11338;SDS011;5724;42.684;23.252;2023-12-14T16:08:28;4.60;;;4.20;;
11338;SDS011;5724;42.684;23.252;2023-12-14T16:11:14;4.47;;;2.83;;
11338;SDS011;5724;42.684;23.252;2023-12-14T16:14:00;2.00;;;1.90;;
11338;SDS011;5724;42.684;23.252;2023-12-14T16:16:45;2.33;;;2.17;;
11338;SDS011;5724;42.684;23.252;2023-12-14T16:19:31;3.77;;;3.57;;
11338;SDS011;5724;42.684;23.252;2023-12-14T16:22:17;1.97;;;1.87;;
11338;SDS011;5724;42.684;23.252;2023-12-14T16:25:05;1.57;;;1.47;;
11338;SDS011;5724;42.684;23.252;2023-12-14T16:27:51;3.13;;;1.30;;
11338;SDS011;5724;42.684;23.252;2023-12-14T16:30:37;2.20;;;1.50;;
11338;SDS011;5724;42.684;23.252;2023-12-14T16:33:23;2.10;;;2.00;;